Savoonga, AK

4:07 PM AKDT on July 27, 2016 (GMT -0800)
Savoonga | | Change Station
Active Advisory: Areal Flood Watch

Elev 52 ft 63.69 °N, 170.49 °W | Updated 11 minutes ago

Clear
Clear
55 °F
Feels Like 55 °F
N
6
Wind Variable Wind from NE

Today
High -- | Low -- °F
--% Chance of Precip.
Yesterday
High -- | Low -- °F
Precip. -- in
Pressure 29.75 in
Visibility 10.0 miles
Clouds Clear
Dew Point 48 °F
Humidity 77%
Rainfall 0.00 in
Snow Depth Not available.
6:20 AM 0:34 AM
Last Quarter, 38% visible
METAR PASA 272356Z AUTO 05005KT 10SM CLR 13/09 A2975 RMK AO1 10140 20100 54000
Pressure 29.75 in
Visibility 10.0 miles
Clouds Clear
Dew Point 48 °F
Humidity 77%
Rainfall 0.00 in
Snow Depth Not available.
6:20 AM 0:34 AM
Last Quarter, 38% visible
METAR PASA 272356Z AUTO 05005KT 10SM CLR 13/09 A2975 RMK AO1 10140 20100 54000

10-Day Weather Forecast

Almanac

Astronomy

Jul. 27, 2016 Rise Set
Actual Time
Civil Twilight
Nautical Twilight
Astronomical Twilight
Moon
Length of Visible Light
Length of Day
Tomorrow will be .
, % of the Moon is Illuminated

Today's Extremes

State Highs State Lows

Community

WunderPhotos

Upload Photos

1,927,963 photos uploaded!

WunderBlog® & News

Nearby

Air Quality

  Air Quality AQ Index Pollutant
Not available.

Snow Depth

Station Depth Elevation

Earthquake Activity

City Distance Mag. Time & Date
Minimum magnitude displayed is 2.5.

Coastal Water Temperatures

Place Temperature

Stations

Nearby Weather Stations

Station Location Temp. Windchill Dew Point Humidity Wind Precip. Elev Updated Type
                   

Watches & Warnings

Areal Flood Watch
Issued: 1:57 PM AKDT Jul. 27, 2016 – National Weather Service

..Flood Watch in effect from Friday afternoon through Saturday
evening...

The National Weather Service in Fairbanks has issued a

* Flood Watch for the Bering Strait coast.

* From Friday afternoon through Saturday evening

* heavy rainfall is forecast for the area beginning Friday
morning and extending through early Saturday morning. Forecast
rainfall amounts are between 1 and 2 inches with the possibility
of locally heavier amounts.

* Small streams and rivers will rise to bankfull or overbank
Friday afternoon into Saturday morning followed by significant
rises on the larger rivers. Minor flooding in possible in low
lying areas in this region.

Precautionary/preparedness actions...

A Flood Watch means there is a potential for flooding based on
current forecasts.

You should monitor later forecasts and be alert for possible
flood warnings. Those living in areas prone to flooding should be
prepared to take action should flooding develop.